This is the latest recevied weather packets stored in our database for station/object N6DZK. If no packets are shown the sender has not sent any weather packets the latest 10 day(s).
| Time | Temp. | Humidity | Pressure | Rain* | Wind** | Luminosity | Snow |
|---|---|---|---|---|---|---|---|
| 1777661888 | 23.33° C | 54% | 1015.3 hPa | 0 mm | - | 974 W/m² | - |
| 1777661585 | 23.33° C | 55% | 1015.4 hPa | 0 mm | - | 952 W/m² | - |
| 1777661280 | 22.22° C | 57% | 1015.5 hPa | 0 mm | - | 945 W/m² | - |
| 1777660976 | 21.11° C | 59% | 1015.5 hPa | 0 mm | - | 926 W/m² | - |
| 1777660672 | 21.11° C | 57% | 1015.7 hPa | 0 mm | - | 936 W/m² | - |
| 1777660369 | 21.11° C | 59% | 1015.6 hPa | 0 mm | - | 924 W/m² | - |
| 1777660065 | 20.56° C | 60% | 1015.5 hPa | 0 mm | - | 925 W/m² | - |
| 1777659763 | 20° C | 63% | 1015.8 hPa | 0 mm | - | 930 W/m² | - |
| 1777659459 | 20° C | 64% | 1015.7 hPa | 0 mm | - | 902 W/m² | - |
| 1777659157 | 20.56° C | 60% | 1015.8 hPa | 0 mm | - | 899 W/m² | - |
| 1777658854 | 21.11° C | 62% | 1015.9 hPa | 0 mm | - | 889 W/m² | - |
| 1777658550 | 20.56° C | 63% | 1015.8 hPa | 0 mm | - | 878 W/m² | - |
| 1777658247 | 20° C | 63% | 1015.9 hPa | 0 mm | - | 860 W/m² | - |
| 1777657944 | 20° C | 64% | 1016.1 hPa | 0 mm | - | 853 W/m² | - |
| 1777657640 | 19.44° C | 65% | 1016 hPa | 0 mm | - | 840 W/m² | - |
| 1777657338 | 20° C | 63% | 1016 hPa | 0 mm | - | 835 W/m² | - |
| 1777657036 | 19.44° C | 67% | 1015.8 hPa | 0 mm | - | 771 W/m² | - |
| 1777656733 | 18.89° C | 67% | 1016.2 hPa | 0 mm | - | 808 W/m² | - |
| 1777656428 | 17.78° C | 70% | 1015.8 hPa | 0 mm | - | 792 W/m² | - |
| 1777656123 | 17.78° C | 70% | 1015.8 hPa | 0 mm | - | 784 W/m² | - |
| 1777655820 | 17.78° C | 69% | 1015.8 hPa | 0 mm | - | 723 W/m² | - |
| 1777655516 | 17.78° C | 71% | 1015.9 hPa | 0 mm | - | 834 W/m² | - |
| 1777655214 | 17.78° C | 72% | 1016.2 hPa | 0 mm | - | 856 W/m² | - |
| 1777654911 | 16.67° C | 75% | 1015.9 hPa | 0 mm | - | 521 W/m² | - |
| 1777654608 | 16.11° C | 77% | 1016.1 hPa | 0 mm | - | 425 W/m² | - |
* Rain latest hour (hover to see other rain measurements)
** Current wind speed in m/s (hover to see current wind gust speed)